Time,TemperatureF,DewpointF,PressureIn,WindDirection,WindDirectionDegrees,WindSpeedMPH,WindSpeedGustMPH,Humidity,HourlyPrecipIn,Conditions,Clouds,dailyrainin,SoftwareType,DateUTC
2013-05-24 00:03:00,37.9,35.0,29.98,South,191,0.0,-999.0,88,-99.99,,,0.00,weatherlink.com 1.10,2013-05-24 07:03:00,
2013-05-24 00:18:00,37.9,35.0,29.97,ESE,112,2.0,-999.0,88,-99.99,,,0.00,weatherlink.com 1.10,2013-05-24 07:18:00,
2013-05-24 00:33:00,37.9,35.0,29.97,East,96,1.0,-999.0,89,-99.99,,,0.00,weatherlink.com 1.10,2013-05-24 07:33:00,
2013-05-24 00:48:00,37.6,35.0,29.96,ESE,120,0.0,-999.0,89,-99.99,,,0.00,weatherlink.com 1.10,2013-05-24 07:48:00,
2013-05-24 01:03:00,37.4,35.0,29.96,East,101,0.0,-999.0,89,-99.99,,,0.00,weatherlink.com 1.10,2013-05-24 08:03:00,
2013-05-24 01:18:00,38.1,34.0,29.96,SSE,150,3.0,-999.0,86,-99.99,,,0.00,weatherlink.com 1.10,2013-05-24 08:18:00,
2013-05-24 01:33:00,37.7,34.0,29.95,ENE,77,0.0,-999.0,86,-99.99,,,0.00,weatherlink.com 1.10,2013-05-24 08:33:00,
2013-05-24 01:48:00,37.3,34.0,29.95,ESE,105,0.0,-999.0,86,-99.99,,,0.00,weatherlink.com 1.10,2013-05-24 08:48:00,
2013-05-24 02:03:00,36.6,33.0,29.95,East,79,0.0,-999.0,87,-99.99,,,0.00,weatherlink.com 1.10,2013-05-24 09:03:00,
2013-05-24 02:18:00,36.5,33.0,29.95,ENE,73,0.0,-999.0,88,-99.99,,,0.00,weatherlink.com 1.10,2013-05-24 09:18:00,
2013-05-24 02:33:00,35.7,33.0,29.95,East,89,1.0,-999.0,89,-99.99,,,0.00,weatherlink.com 1.10,2013-05-24 09:33:00,
2013-05-24 02:48:00,36.0,33.0,29.95,SSE,149,4.0,-999.0,90,-99.99,,,0.00,weatherlink.com 1.10,2013-05-24 09:48:00,
2013-05-24 03:03:00,37.1,34.0,29.95,ESE,120,1.0,-999.0,89,-99.99,,,0.00,weatherlink.com 1.10,2013-05-24 10:03:00,
2013-05-24 03:18:00,37.9,34.0,29.94,ENE,77,1.0,-999.0,86,-99.99,,,0.00,weatherlink.com 1.10,2013-05-24 10:18:00,
2013-05-24 03:33:00,38.4,34.0,29.94,SSE,150,5.0,-999.0,85,-99.99,,,0.00,weatherlink.com 1.10,2013-05-24 10:33:00,
2013-05-24 03:48:00,38.9,34.0,29.94,SE,146,6.0,-999.0,83,-99.99,,,0.00,weatherlink.com 1.10,2013-05-24 10:48:00,
2013-05-24 04:03:00,39.0,34.0,29.94,SE,143,2.0,-999.0,83,-99.99,,,0.00,weatherlink.com 1.10,2013-05-24 11:03:00,
2013-05-24 04:18:00,38.7,34.0,29.94,NNE,20,0.0,-999.0,84,-99.99,,,0.00,weatherlink.com 1.10,2013-05-24 11:18:00,
2013-05-24 04:33:00,39.0,34.0,29.95,SE,143,0.0,-999.0,82,-99.99,,,0.00,weatherlink.com 1.10,2013-05-24 11:33:00,
2013-05-24 04:48:00,38.9,34.0,29.95,South,183,4.0,-999.0,83,-99.99,,,0.00,weatherlink.com 1.10,2013-05-24 11:48:00,
2013-05-24 05:03:00,38.9,34.0,29.95,South,190,5.0,-999.0,82,-99.99,,,0.00,weatherlink.com 1.10,2013-05-24 12:03:00,
2013-05-24 05:18:00,38.8,34.0,29.96,SE,139,5.0,-999.0,83,-99.99,,,0.00,weatherlink.com 1.10,2013-05-24 12:18:00,
2013-05-24 05:33:00,38.8,34.0,29.96,SSE,155,6.0,-999.0,82,-99.99,,,0.00,weatherlink.com 1.10,2013-05-24 12:33:00,
2013-05-24 05:48:00,38.8,34.0,29.96,South,188,2.0,-999.0,82,-99.99,,,0.00,weatherlink.com 1.10,2013-05-24 12:48:00,
2013-05-24 06:03:00,38.8,33.0,29.96,SE,145,4.0,-999.0,81,-99.99,,,0.00,weatherlink.com 1.10,2013-05-24 13:03:00,
2013-05-24 06:18:00,38.9,34.0,29.97,SSE,153,5.0,-999.0,83,-99.99,,,0.00,weatherlink.com 1.10,2013-05-24 13:18:00,
2013-05-24 06:33:00,39.0,34.0,29.98,SE,145,5.0,-999.0,81,-99.99,,,0.00,weatherlink.com 1.10,2013-05-24 13:33:00,
2013-05-24 06:48:00,39.1,34.0,29.98,SE,140,2.0,-999.0,81,-99.99,,,0.00,weatherlink.com 1.10,2013-05-24 13:48:00,
2013-05-24 07:03:00,39.3,34.0,29.98,SSW,200,2.0,-999.0,82,-99.99,,,0.00,weatherlink.com 1.10,2013-05-24 14:03:00,
2013-05-24 07:18:00,39.8,34.0,29.99,SW,222,0.0,-999.0,80,-99.99,,,0.00,weatherlink.com 1.10,2013-05-24 14:18:00,
2013-05-24 07:33:00,40.4,34.0,29.99,WNW,284,2.0,-999.0,78,-99.99,,,0.00,weatherlink.com 1.10,2013-05-24 14:33:00,
2013-05-24 07:48:00,40.6,34.0,29.99,SW,226,0.0,-999.0,77,-99.99,,,0.00,weatherlink.com 1.10,2013-05-24 14:48:00,
2013-05-24 08:03:00,40.9,34.0,30.00,NW,325,2.0,-999.0,77,-99.99,,,0.00,weatherlink.com 1.10,2013-05-24 15:03:00,
2013-05-24 08:18:00,41.0,34.0,30.00,West,280,7.0,-999.0,75,-99.99,,,0.00,weatherlink.com 1.10,2013-05-24 15:18:00,
2013-05-24 08:33:00,41.2,34.0,30.00,West,263,5.0,-999.0,74,-99.99,,,0.00,weatherlink.com 1.10,2013-05-24 15:33:00,
2013-05-24 08:48:00,41.4,33.0,30.00,West,271,7.0,-999.0,73,-99.99,,,0.00,weatherlink.com 1.10,2013-05-24 15:48:00,
2013-05-24 09:03:00,42.5,33.0,30.00,West,275,4.0,-999.0,70,-99.99,,,0.00,weatherlink.com 1.10,2013-05-24 16:03:00,
2013-05-24 09:18:00,42.9,34.0,30.00,West,280,5.0,-999.0,70,-99.99,,,0.00,weatherlink.com 1.10,2013-05-24 16:18:00,
2013-05-24 09:33:00,43.2,35.0,30.00,WNW,285,4.0,-999.0,73,-99.99,,,0.00,weatherlink.com 1.10,2013-05-24 16:33:00,
2013-05-24 09:48:00,43.4,33.0,30.00,WNW,301,6.0,-999.0,67,-99.99,,,0.00,weatherlink.com 1.10,2013-05-24 16:48:00,
2013-05-24 10:03:00,44.9,33.0,30.00,West,267,10.0,-999.0,64,-99.99,,,0.00,weatherlink.com 1.10,2013-05-24 17:03:00,
2013-05-24 10:18:00,46.0,33.0,30.00,WNW,290,11.0,-999.0,61,-99.99,,,0.00,weatherlink.com 1.10,2013-05-24 17:18:00,
2013-05-24 10:33:00,44.8,32.0,30.00,WNW,288,6.0,-999.0,62,-99.99,,,0.00,weatherlink.com 1.10,2013-05-24 17:33:00,
2013-05-24 10:48:00,45.3,31.0,30.00,WNW,300,4.0,-999.0,58,-99.99,,,0.00,weatherlink.com 1.10,2013-05-24 17:48:00,
2013-05-24 11:03:00,46.7,32.0,30.00,NW,304,10.0,-999.0,57,-99.99,,,0.00,weatherlink.com 1.10,2013-05-24 18:03:00,
2013-05-24 11:18:00,46.5,31.0,30.01,West,281,7.0,-999.0,55,-99.99,,,0.00,weatherlink.com 1.10,2013-05-24 18:18:00,
2013-05-24 11:33:00,46.8,32.0,30.01,West,281,9.0,-999.0,56,-99.99,,,0.00,weatherlink.com 1.10,2013-05-24 18:33:00,
2013-05-24 11:48:00,46.8,30.0,30.01,West,276,10.0,-999.0,53,-99.99,,,0.00,weatherlink.com 1.10,2013-05-24 18:48:00,
2013-05-24 12:03:00,48.2,31.0,30.01,West,263,6.0,-999.0,51,-99.99,,,0.00,weatherlink.com 1.10,2013-05-24 19:03:00,
2013-05-24 12:18:00,49.0,30.0,30.01,WNW,287,8.0,-999.0,49,-99.99,,,0.00,weatherlink.com 1.10,2013-05-24 19:18:00,
2013-05-24 12:33:00,49.7,29.0,30.00,West,271,12.0,-999.0,46,-99.99,,,0.00,weatherlink.com 1.10,2013-05-24 19:33:00,
2013-05-24 12:48:00,49.7,29.0,30.01,NW,315,10.0,-999.0,46,-99.99,,,0.00,weatherlink.com 1.10,2013-05-24 19:48:00,
2013-05-24 13:03:00,50.2,29.0,30.00,West,270,4.0,-999.0,45,-99.99,,,0.00,weatherlink.com 1.10,2013-05-24 20:03:00,
2013-05-24 13:18:00,50.4,31.0,30.01,WNW,283,12.0,-999.0,47,-99.99,,,0.00,weatherlink.com 1.10,2013-05-24 20:18:00,
2013-05-24 13:33:00,50.8,31.0,30.01,NW,317,10.0,-999.0,47,-99.99,,,0.00,weatherlink.com 1.10,2013-05-24 20:33:00,
2013-05-24 13:48:00,50.7,30.0,30.01,WNW,289,12.0,-999.0,46,-99.99,,,0.00,weatherlink.com 1.10,2013-05-24 20:48:00,
2013-05-24 14:03:00,52.0,30.0,30.01,WNW,295,7.0,-999.0,43,-99.99,,,0.00,weatherlink.com 1.10,2013-05-24 21:03:00,
2013-05-24 14:18:00,51.4,28.0,30.01,NNE,33,5.0,-999.0,41,-99.99,,,0.00,weatherlink.com 1.10,2013-05-24 21:18:00,
2013-05-24 14:33:00,52.6,29.0,30.01,West,263,13.0,-999.0,41,-99.99,,,0.00,weatherlink.com 1.10,2013-05-24 21:33:00,
2013-05-24 14:48:00,52.5,31.0,30.01,West,274,10.0,-999.0,44,-99.99,,,0.00,weatherlink.com 1.10,2013-05-24 21:48:00,
2013-05-24 15:03:00,52.3,27.0,30.01,NW,323,6.0,-999.0,38,-99.99,,,0.00,weatherlink.com 1.10,2013-05-24 22:03:00,
2013-05-24 15:18:00,53.2,29.0,30.01,WNW,303,7.0,-999.0,40,-99.99,,,0.00,weatherlink.com 1.10,2013-05-24 22:18:00,
2013-05-24 15:33:00,52.6,28.0,30.01,West,277,1.0,-999.0,39,-99.99,,,0.00,weatherlink.com 1.10,2013-05-24 22:33:00,
2013-05-24 15:48:00,53.0,30.0,30.00,NW,319,16.0,-999.0,42,-99.99,,,0.00,weatherlink.com 1.10,2013-05-24 22:48:00,
2013-05-24 16:03:00,53.2,30.0,30.00,NW,307,5.0,-999.0,42,-99.99,,,0.00,weatherlink.com 1.10,2013-05-24 23:03:00,
2013-05-24 16:18:00,54.1,28.0,30.00,WNW,294,8.0,-999.0,37,-99.99,,,0.00,weatherlink.com 1.10,2013-05-24 23:18:00,
2013-05-24 16:33:00,53.1,28.0,30.00,West,274,4.0,-999.0,38,-99.99,,,0.00,weatherlink.com 1.10,2013-05-24 23:33:00,
2013-05-24 16:48:00,53.9,28.0,30.00,WNW,288,3.0,-999.0,37,-99.99,,,0.00,weatherlink.com 1.10,2013-05-24 23:48:00,
2013-05-24 17:03:00,52.0,29.0,30.00,WNW,285,3.0,-999.0,42,-99.99,,,0.00,weatherlink.com 1.10,2013-05-25 00:03:00,
2013-05-24 17:18:00,51.9,30.0,30.01,WNW,300,8.0,-999.0,43,-99.99,,,0.00,weatherlink.com 1.10,2013-05-25 00:18:00,
2013-05-24 17:33:00,52.0,30.0,30.01,NW,315,5.0,-999.0,43,-99.99,,,0.00,weatherlink.com 1.10,2013-05-25 00:33:00,
2013-05-24 17:48:00,53.3,30.0,30.01,NNW,343,7.0,-999.0,41,-99.99,,,0.00,weatherlink.com 1.10,2013-05-25 00:48:00,
2013-05-24 18:03:00,53.6,30.0,30.01,NNW,342,9.0,-999.0,40,-99.99,,,0.00,weatherlink.com 1.10,2013-05-25 01:03:00,
2013-05-24 18:18:00,53.8,32.0,30.00,NNW,339,7.0,-999.0,43,-99.99,,,0.00,weatherlink.com 1.10,2013-05-25 01:18:00,
2013-05-24 18:33:00,50.6,31.0,30.01,NE,34,10.0,-999.0,48,-99.99,,,0.00,weatherlink.com 1.10,2013-05-25 01:33:00,
2013-05-24 18:48:00,51.1,31.0,30.01,NW,310,11.0,-999.0,46,-99.99,,,0.00,weatherlink.com 1.10,2013-05-25 01:48:00,
2013-05-24 19:03:00,50.1,32.0,30.01,NNW,333,12.0,-999.0,51,-99.99,,,0.00,weatherlink.com 1.10,2013-05-25 02:03:00,
2013-05-24 19:18:00,49.5,33.0,30.02,NW,321,5.0,-999.0,54,-99.99,,,0.00,weatherlink.com 1.10,2013-05-25 02:18:00,
2013-05-24 19:33:00,48.9,33.0,30.02,NNW,340,9.0,-999.0,55,-99.99,,,0.00,weatherlink.com 1.10,2013-05-25 02:33:00,
2013-05-24 19:48:00,49.2,33.0,30.02,NNW,342,8.0,-999.0,54,-99.99,,,0.00,weatherlink.com 1.10,2013-05-25 02:48:00,
2013-05-24 20:03:00,47.6,32.0,30.02,North,351,11.0,-999.0,56,-99.99,,,0.00,weatherlink.com 1.10,2013-05-25 03:03:00,
2013-05-24 20:18:00,46.0,33.0,30.02,North,8,4.0,-999.0,60,-99.99,,,0.00,weatherlink.com 1.10,2013-05-25 03:18:00,
2013-05-24 20:33:00,45.3,32.0,30.02,NNE,16,8.0,-999.0,61,-99.99,,,0.00,weatherlink.com 1.10,2013-05-25 03:33:00,
2013-05-24 20:48:00,44.1,33.0,30.02,NNW,333,5.0,-999.0,64,-99.99,,,0.00,weatherlink.com 1.10,2013-05-25 03:48:00,
2013-05-24 21:03:00,43.2,32.0,30.03,NNW,338,4.0,-999.0,66,-99.99,,,0.00,weatherlink.com 1.10,2013-05-25 04:03:00,
2013-05-24 21:18:00,41.9,32.0,30.03,North,5,0.0,-999.0,68,-99.99,,,0.00,weatherlink.com 1.10,2013-05-25 04:18:00,
2013-05-24 21:33:00,41.1,32.0,30.03,East,88,0.0,-999.0,71,-99.99,,,0.00,weatherlink.com 1.10,2013-05-25 04:33:00,
2013-05-24 21:48:00,40.3,32.0,30.03,SSW,197,0.0,-999.0,71,-99.99,,,0.00,weatherlink.com 1.10,2013-05-25 04:48:00,
2013-05-24 22:03:00,39.2,33.0,30.03,SE,127,1.0,-999.0,78,-99.99,,,0.00,weatherlink.com 1.10,2013-05-25 05:03:00,
2013-05-24 22:18:00,38.0,31.0,30.03,SSW,207,0.0,-999.0,76,-99.99,,,0.00,weatherlink.com 1.10,2013-05-25 05:18:00,
2013-05-24 22:33:00,37.3,31.0,30.03,SSE,155,0.0,-999.0,79,-99.99,,,0.00,weatherlink.com 1.10,2013-05-25 05:33:00,
2013-05-24 22:48:00,36.0,30.0,30.03,SW,219,1.0,-999.0,80,-99.99,,,0.00,weatherlink.com 1.10,2013-05-25 05:48:00,
2013-05-24 23:03:00,34.5,30.0,30.02,ESE,118,0.0,-999.0,83,-99.99,,,0.00,weatherlink.com 1.10,2013-05-25 06:03:00,
2013-05-24 23:18:00,34.2,31.0,30.02,SE,125,0.0,-999.0,86,-99.99,,,0.00,weatherlink.com 1.10,2013-05-25 06:18:00,
2013-05-24 23:33:00,34.4,31.0,30.02,SE,139,2.0,-999.0,88,-99.99,,,0.00,weatherlink.com 1.10,2013-05-25 06:33:00,
2013-05-24 23:48:00,33.8,30.0,30.02,ESE,121,2.0,-999.0,87,-99.99,,,0.00,weatherlink.com 1.10,2013-05-25 06:48:00,